Beaverton, Canada
Current Conditions -  °F | °C
As of 9:52 AM on Friday 28 Nov 2014 (Local Time) from CYQA Reporting Station
Light Snow Light Snow  
Wind Chill: -14°   Ceiling: 1400
Heat Index: -8°   Visibility: 7mi
Dew Point: -10°   Wind: 8mph
Humidity: 86%   Direction: 340°NNW
Pressure: 30.18"   Gusts: NA
Location:  44.43°N, 79.15°W
Report Text: CYQA 281452Z AUTO 34007KT 7SM -SN OVC014 M08/M10 A3018 RMK SLP239
Loading
Personal Weather Stations






























Interactive Weather Map New forecast layout! Learn more

10-Day Weather Forecast

Advertisements
Track Severe Weather on mobile